sensor_id;sensor_type;location;lat;lon;timestamp;pressure;altitude;pressure_sealevel;temperature;humidity
11672;BME280;5892;43.412;24.612;2022-12-20T00:00:06;102440.19;;;-3.48;100.00
11672;BME280;5892;43.412;24.612;2022-12-20T00:02:33;102435.84;;;-3.57;100.00
11672;BME280;5892;43.412;24.612;2022-12-20T00:05:00;102402.16;;;-3.68;100.00
11672;BME280;5892;43.412;24.612;2022-12-20T00:07:27;102447.88;;;-3.53;100.00
11672;BME280;5892;43.412;24.612;2022-12-20T00:09:54;102429.13;;;-3.61;100.00
11672;BME280;5892;43.412;24.612;2022-12-20T00:12:21;102450.41;;;-3.52;100.00
11672;BME280;5892;43.412;24.612;2022-12-20T00:14:48;102446.53;;;-3.49;100.00
11672;BME280;5892;43.412;24.612;2022-12-20T00:17:16;102430.63;;;-3.59;100.00
11672;BME280;5892;43.412;24.612;2022-12-20T00:19:43;102398.63;;;-3.93;100.00
11672;BME280;5892;43.412;24.612;2022-12-20T00:22:10;102453.41;;;-3.55;100.00
11672;BME280;5892;43.412;24.612;2022-12-20T00:24:37;102442.53;;;-3.53;100.00
11672;BME280;5892;43.412;24.612;2022-12-20T00:27:04;102395.78;;;-3.75;100.00
11672;BME280;5892;43.412;24.612;2022-12-20T00:29:31;102442.88;;;-3.56;100.00
11672;BME280;5892;43.412;24.612;2022-12-20T00:31:58;102437.97;;;-3.61;100.00
11672;BME280;5892;43.412;24.612;2022-12-20T00:34:26;102394.09;;;-3.84;100.00
11672;BME280;5892;43.412;24.612;2022-12-20T00:36:53;102389.56;;;-3.92;100.00
11672;BME280;5892;43.412;24.612;2022-12-20T00:39:20;102431.44;;;-3.66;100.00
11672;BME280;5892;43.412;24.612;2022-12-20T00:41:47;102421.06;;;-3.69;100.00
11672;BME280;5892;43.412;24.612;2022-12-20T00:44:14;102322.72;;;-4.25;100.00
11672;BME280;5892;43.412;24.612;2022-12-20T00:46:41;102423.59;;;-3.68;100.00
11672;BME280;5892;43.412;24.612;2022-12-20T00:49:08;102416.72;;;-3.70;100.00
11672;BME280;5892;43.412;24.612;2022-12-20T00:51:36;102416.91;;;-3.72;100.00
11672;BME280;5892;43.412;24.612;2022-12-20T00:54:03;102411.00;;;-3.75;100.00
11672;BME280;5892;43.412;24.612;2022-12-20T00:56:30;102414.19;;;-3.80;100.00
11672;BME280;5892;43.412;24.612;2022-12-20T00:58:58;102397.13;;;-3.71;100.00
11672;BME280;5892;43.412;24.612;2022-12-20T01:01:27;102379.00;;;-4.01;100.00
11672;BME280;5892;43.412;24.612;2022-12-20T01:03:54;102406.66;;;-3.76;100.00
11672;BME280;5892;43.412;24.612;2022-12-20T01:06:22;102398.28;;;-3.81;100.00
11672;BME280;5892;43.412;24.612;2022-12-20T01:08:51;102360.94;;;-3.99;100.00
11672;BME280;5892;43.412;24.612;2022-12-20T01:11:20;102397.81;;;-3.77;100.00
11672;BME280;5892;43.412;24.612;2022-12-20T01:13:50;102377.69;;;-3.89;100.00
11672;BME280;5892;43.412;24.612;2022-12-20T01:16:21;102386.72;;;-3.82;100.00
11672;BME280;5892;43.412;24.612;2022-12-20T01:18:49;102389.09;;;-3.79;100.00
11672;BME280;5892;43.412;24.612;2022-12-20T01:21:17;102393.91;;;-3.91;100.00
11672;BME280;5892;43.412;24.612;2022-12-20T01:23:44;102378.03;;;-3.84;100.00
11672;BME280;5892;43.412;24.612;2022-12-20T01:26:14;102377.88;;;-3.82;100.00
11672;BME280;5892;43.412;24.612;2022-12-20T01:28:44;102383.88;;;-3.80;100.00
11672;BME280;5892;43.412;24.612;2022-12-20T01:31:12;102379.00;;;-4.01;100.00
11672;BME280;5892;43.412;24.612;2022-12-20T01:33:40;102376.66;;;-3.96;100.00
11672;BME280;5892;43.412;24.612;2022-12-20T01:36:10;102368.44;;;-4.03;100.00
11672;BME280;5892;43.412;24.612;2022-12-20T01:38:37;102383.88;;;-3.80;100.00
11672;BME280;5892;43.412;24.612;2022-12-20T01:41:04;102372.81;;;-3.86;100.00
11672;BME280;5892;43.412;24.612;2022-12-20T01:43:48;102370.16;;;-3.86;100.00
11672;BME280;5892;43.412;24.612;2022-12-20T01:46:15;102322.19;;;-4.29;100.00
11672;BME280;5892;43.412;24.612;2022-12-20T01:48:45;102372.81;;;-3.94;100.00
11672;BME280;5892;43.412;24.612;2022-12-20T01:51:14;102363.28;;;-3.96;100.00
11672;BME280;5892;43.412;24.612;2022-12-20T01:53:42;102206.03;;;-4.93;100.00
11672;BME280;5892;43.412;24.612;2022-12-20T01:56:10;102367.13;;;-3.91;100.00
11672;BME280;5892;43.412;24.612;2022-12-20T01:58:38;102355.38;;;-4.14;100.00
11672;BME280;5892;43.412;24.612;2022-12-20T02:01:07;102348.16;;;-4.13;100.00
11672;BME280;5892;43.412;24.612;2022-12-20T02:03:35;102296.44;;;-4.38;100.00
11672;BME280;5892;43.412;24.612;2022-12-20T02:06:20;102349.53;;;-4.09;100.00
11672;BME280;5892;43.412;24.612;2022-12-20T02:08:49;102350.88;;;-4.05;100.00
11672;BME280;5892;43.412;24.612;2022-12-20T02:11:27;102318.22;;;-4.25;100.00
11672;BME280;5892;43.412;24.612;2022-12-20T02:14:13;102329.28;;;-4.20;100.00
11672;BME280;5892;43.412;24.612;2022-12-20T02:16:49;102320.06;;;-4.17;100.00
11672;BME280;5892;43.412;24.612;2022-12-20T02:19:30;102299.44;;;-4.33;100.00
11672;BME280;5892;43.412;24.612;2022-12-20T02:22:14;102333.97;;;-4.06;100.00
11672;BME280;5892;43.412;24.612;2022-12-20T02:24:57;102298.91;;;-4.45;100.00
11672;BME280;5892;43.412;24.612;2022-12-20T02:27:47;102312.84;;;-4.33;100.00
11672;BME280;5892;43.412;24.612;2022-12-20T02:30:20;102311.69;;;-4.31;100.00
11672;BME280;5892;43.412;24.612;2022-12-20T02:32:52;102312.19;;;-4.35;100.00
11672;BME280;5892;43.412;24.612;2022-12-20T02:35:22;102314.16;;;-4.37;100.00
11672;BME280;5892;43.412;24.612;2022-12-20T02:37:51;102306.81;;;-4.35;100.00
11672;BME280;5892;43.412;24.612;2022-12-20T02:40:21;102299.75;;;-4.44;100.00
11672;BME280;5892;43.412;24.612;2022-12-20T02:42:52;102289.03;;;-4.52;100.00
11672;BME280;5892;43.412;24.612;2022-12-20T02:45:25;102293.75;;;-4.46;100.00
11672;BME280;5892;43.412;24.612;2022-12-20T02:47:54;102230.59;;;-4.81;100.00
11672;BME280;5892;43.412;24.612;2022-12-20T02:50:28;102281.38;;;-4.39;100.00
11672;BME280;5892;43.412;24.612;2022-12-20T02:52:57;102308.81;;;-4.37;100.00
11672;BME280;5892;43.412;24.612;2022-12-20T02:55:32;102311.66;;;-4.47;100.00
11672;BME280;5892;43.412;24.612;2022-12-20T02:58:04;102292.56;;;-4.44;100.00
11672;BME280;5892;43.412;24.612;2022-12-20T03:00:39;102319.53;;;-4.29;100.00
11672;BME280;5892;43.412;24.612;2022-12-20T03:03:09;102310.16;;;-4.33;100.00
11672;BME280;5892;43.412;24.612;2022-12-20T03:05:49;102296.59;;;-4.48;100.00
11672;BME280;5892;43.412;24.612;2022-12-20T03:08:16;102307.81;;;-4.28;100.00
11672;BME280;5892;43.412;24.612;2022-12-20T03:10:44;102307.13;;;-4.38;100.00
11672;BME280;5892;43.412;24.612;2022-12-20T03:13:11;102300.09;;;-4.39;100.00
11672;BME280;5892;43.412;24.612;2022-12-20T03:15:39;102304.13;;;-4.43;100.00
11672;BME280;5892;43.412;24.612;2022-12-20T03:18:06;102298.81;;;-4.35;100.00
11672;BME280;5892;43.412;24.612;2022-12-20T03:20:33;102305.94;;;-4.44;100.00
11672;BME280;5892;43.412;24.612;2022-12-20T03:23:01;102303.81;;;-4.40;100.00
11672;BME280;5892;43.412;24.612;2022-12-20T03:25:28;102309.81;;;-4.46;100.00
11672;BME280;5892;43.412;24.612;2022-12-20T03:27:55;102272.94;;;-4.68;100.00
11672;BME280;5892;43.412;24.612;2022-12-20T03:30:22;102301.75;;;-4.54;100.00
11672;BME280;5892;43.412;24.612;2022-12-20T03:32:50;102303.94;;;-4.50;100.00
11672;BME280;5892;43.412;24.612;2022-12-20T03:35:17;102303.44;;;-4.53;100.00
11672;BME280;5892;43.412;24.612;2022-12-20T03:37:46;102294.69;;;-4.63;100.00
11672;BME280;5892;43.412;24.612;2022-12-20T03:40:13;102305.78;;;-4.50;100.00
11672;BME280;5892;43.412;24.612;2022-12-20T03:42:40;102232.59;;;-4.91;100.00
11672;BME280;5892;43.412;24.612;2022-12-20T03:45:08;102307.13;;;-4.38;100.00
11672;BME280;5892;43.412;24.612;2022-12-20T03:47:35;102240.31;;;-4.80;100.00
11672;BME280;5892;43.412;24.612;2022-12-20T03:50:04;102297.78;;;-4.34;100.00
11672;BME280;5892;43.412;24.612;2022-12-20T03:52:31;102288.25;;;-4.37;100.00
11672;BME280;5892;43.412;24.612;2022-12-20T03:54:58;102144.06;;;-5.38;100.00
11672;BME280;5892;43.412;24.612;2022-12-20T03:57:26;102305.84;;;-4.26;100.00
11672;BME280;5892;43.412;24.612;2022-12-20T03:59:53;102305.78;;;-4.34;100.00
11672;BME280;5892;43.412;24.612;2022-12-20T04:02:20;102302.31;;;-4.27;100.00
11672;BME280;5892;43.412;24.612;2022-12-20T04:04:47;102298.09;;;-4.37;100.00
11672;BME280;5892;43.412;24.612;2022-12-20T04:07:16;102264.63;;;-4.57;100.00
11672;BME280;5892;43.412;24.612;2022-12-20T04:09:43;102294.78;;;-4.31;100.00
11672;BME280;5892;43.412;24.612;2022-12-20T04:12:10;102296.13;;;-4.35;100.00
11672;BME280;5892;43.412;24.612;2022-12-20T04:14:36;102283.59;;;-4.35;100.00
11672;BME280;5892;43.412;24.612;2022-12-20T04:17:03;102286.22;;;-4.51;100.00
11672;BME280;5892;43.412;24.612;2022-12-20T04:19:30;102288.91;;;-4.43;100.00
11672;BME280;5892;43.412;24.612;2022-12-20T04:21:57;102272.34;;;-4.38;100.00
11672;BME280;5892;43.412;24.612;2022-12-20T04:24:25;102270.31;;;-4.52;100.00
11672;BME280;5892;43.412;24.612;2022-12-20T04:26:52;102245.16;;;-4.76;100.00
11672;BME280;5892;43.412;24.612;2022-12-20T04:29:19;102275.31;;;-4.57;100.00
11672;BME280;5892;43.412;24.612;2022-12-20T04:31:46;102272.81;;;-4.59;100.00
11672;BME280;5892;43.412;24.612;2022-12-20T04:34:13;102278.50;;;-4.62;100.00
11672;BME280;5892;43.412;24.612;2022-12-20T04:36:40;102257.75;;;-4.68;100.00
11672;BME280;5892;43.412;24.612;2022-12-20T04:39:07;102270.81;;;-4.57;100.00
11672;BME280;5892;43.412;24.612;2022-12-20T04:41:36;102248.34;;;-4.80;100.00
11672;BME280;5892;43.412;24.612;2022-12-20T04:44:03;102203.31;;;-5.01;100.00
11672;BME280;5892;43.412;24.612;2022-12-20T04:46:30;102229.06;;;-4.92;100.00
11672;BME280;5892;43.412;24.612;2022-12-20T04:48:57;102270.97;;;-4.58;100.00
11672;BME280;5892;43.412;24.612;2022-12-20T04:51:25;102268.28;;;-4.58;100.00
11672;BME280;5892;43.412;24.612;2022-12-20T04:53:52;102266.81;;;-4.61;100.00
11672;BME280;5892;43.412;24.612;2022-12-20T04:56:20;102273.66;;;-4.58;100.00
11672;BME280;5892;43.412;24.612;2022-12-20T04:58:50;102287.03;;;-4.58;100.00
11672;BME280;5892;43.412;24.612;2022-12-20T05:01:18;102253.72;;;-4.64;100.00
11672;BME280;5892;43.412;24.612;2022-12-20T05:03:45;102265.97;;;-4.53;100.00
11672;BME280;5892;43.412;24.612;2022-12-20T05:06:12;102222.13;;;-4.77;100.00
11672;BME280;5892;43.412;24.612;2022-12-20T05:08:39;102266.31;;;-4.48;100.00
11672;BME280;5892;43.412;24.612;2022-12-20T05:11:07;102282.50;;;-4.50;100.00
11672;BME280;5892;43.412;24.612;2022-12-20T05:13:34;102279.38;;;-4.45;100.00
11672;BME280;5892;43.412;24.612;2022-12-20T05:16:03;102268.00;;;-4.39;100.00
11672;BME280;5892;43.412;24.612;2022-12-20T05:18:30;102192.81;;;-5.02;100.00
11672;BME280;5892;43.412;24.612;2022-12-20T05:20:58;102258.44;;;-4.50;100.00
11672;BME280;5892;43.412;24.612;2022-12-20T05:23:43;102259.63;;;-4.44;100.00
11672;BME280;5892;43.412;24.612;2022-12-20T05:26:30;102247.59;;;-4.40;100.00
11672;BME280;5892;43.412;24.612;2022-12-20T05:28:58;102249.97;;;-4.21;100.00
11672;BME280;5892;43.412;24.612;2022-12-20T05:31:26;102221.84;;;-4.25;100.00
11672;BME280;5892;43.412;24.612;2022-12-20T05:33:53;102261.81;;;-4.23;100.00
11672;BME280;5892;43.412;24.612;2022-12-20T05:36:20;102177.28;;;-4.91;100.00
11672;BME280;5892;43.412;24.612;2022-12-20T05:38:47;102240.59;;;-4.17;100.00
11672;BME280;5892;43.412;24.612;2022-12-20T05:41:16;102142.22;;;-4.88;100.00
11672;BME280;5892;43.412;24.612;2022-12-20T05:43:44;102195.00;;;-4.90;100.00
11672;BME280;5892;43.412;24.612;2022-12-20T05:46:11;102253.66;;;-4.14;100.00
11672;BME280;5892;43.412;24.612;2022-12-20T05:48:39;102256.81;;;-4.10;100.00
11672;BME280;5892;43.412;24.612;2022-12-20T05:51:06;102259.50;;;-4.02;100.00
11672;BME280;5892;43.412;24.612;2022-12-20T05:53:34;102219.00;;;-4.23;100.00
11672;BME280;5892;43.412;24.612;2022-12-20T05:56:01;102253.47;;;-3.96;100.00
11672;BME280;5892;43.412;24.612;2022-12-20T05:58:28;102230.38;;;-4.13;100.00
11672;BME280;5892;43.412;24.612;2022-12-20T06:00:55;102254.47;;;-3.89;100.00
11672;BME280;5892;43.412;24.612;2022-12-20T06:07:03;102245.09;;;-3.85;100.00
11672;BME280;5892;43.412;24.612;2022-12-20T06:09:56;102239.25;;;-3.89;100.00
11672;BME280;5892;43.412;24.612;2022-12-20T06:15:36;102249.28;;;-3.82;100.00
11672;BME280;5892;43.412;24.612;2022-12-20T06:18:04;102249.78;;;-3.79;100.00
11672;BME280;5892;43.412;24.612;2022-12-20T06:20:31;102240.88;;;-3.71;100.00
11672;BME280;5892;43.412;24.612;2022-12-20T06:23:00;102199.91;;;-4.12;100.00
11672;BME280;5892;43.412;24.612;2022-12-20T06:25:27;102234.16;;;-3.59;100.00
11672;BME280;5892;43.412;24.612;2022-12-20T06:27:55;102242.22;;;-3.59;100.00
11672;BME280;5892;43.412;24.612;2022-12-20T06:30:22;102242.53;;;-3.54;100.00
11672;BME280;5892;43.412;24.612;2022-12-20T06:32:49;102198.53;;;-3.76;100.00
11672;BME280;5892;43.412;24.612;2022-12-20T06:35:16;102245.84;;;-3.44;100.00
11672;BME280;5892;43.412;24.612;2022-12-20T06:37:43;102185.13;;;-3.76;100.00
11672;BME280;5892;43.412;24.612;2022-12-20T06:40:12;102244.16;;;-3.37;100.00
11672;BME280;5892;43.412;24.612;2022-12-20T06:42:39;102234.84;;;-3.57;100.00
11672;BME280;5892;43.412;24.612;2022-12-20T06:45:07;102199.38;;;-3.67;100.00
11672;BME280;5892;43.412;24.612;2022-12-20T06:47:35;102240.81;;;-3.31;100.00
11672;BME280;5892;43.412;24.612;2022-12-20T06:50:02;102233.72;;;-3.24;100.00
11672;BME280;5892;43.412;24.612;2022-12-20T06:52:29;102223.19;;;-3.25;100.00
11672;BME280;5892;43.412;24.612;2022-12-20T06:54:56;102226.53;;;-3.23;100.00
11672;BME280;5892;43.412;24.612;2022-12-20T06:57:24;102183.72;;;-3.48;100.00
11672;BME280;5892;43.412;24.612;2022-12-20T06:59:51;102224.50;;;-3.21;100.00
11672;BME280;5892;43.412;24.612;2022-12-20T07:02:18;102239.34;;;-3.03;100.00
11672;BME280;5892;43.412;24.612;2022-12-20T07:04:45;102227.75;;;-2.95;100.00
11672;BME280;5892;43.412;24.612;2022-12-20T07:07:12;102236.72;;;-3.11;100.00
11672;BME280;5892;43.412;24.612;2022-12-20T07:09:39;102242.41;;;-2.75;100.00
11672;BME280;5892;43.412;24.612;2022-12-20T07:12:07;102141.63;;;-3.31;100.00
11672;BME280;5892;43.412;24.612;2022-12-20T07:14:36;102244.38;;;-2.69;100.00
11672;BME280;5892;43.412;24.612;2022-12-20T07:17:03;102152.06;;;-3.13;100.00
11672;BME280;5892;43.412;24.612;2022-12-20T07:19:30;102233.41;;;-2.59;100.00
11672;BME280;5892;43.412;24.612;2022-12-20T07:22:00;102174.03;;;-3.18;100.00
11672;BME280;5892;43.412;24.612;2022-12-20T07:24:28;102235.09;;;-2.89;100.00
11672;BME280;5892;43.412;24.612;2022-12-20T07:26:54;102239.56;;;-2.81;100.00
11672;BME280;5892;43.412;24.612;2022-12-20T07:29:21;102210.81;;;-2.95;100.00
11672;BME280;5892;43.412;24.612;2022-12-20T07:31:50;102126.22;;;-3.37;100.00
11672;BME280;5892;43.412;24.612;2022-12-20T07:34:17;102252.97;;;-2.73;100.00
11672;BME280;5892;43.412;24.612;2022-12-20T07:36:45;102214.88;;;-3.00;100.00
11672;BME280;5892;43.412;24.612;2022-12-20T07:39:12;102192.22;;;-2.97;100.00
11672;BME280;5892;43.412;24.612;2022-12-20T07:41:40;102222.09;;;-2.77;100.00
11672;BME280;5892;43.412;24.612;2022-12-20T07:44:07;102226.59;;;-2.70;100.00
11672;BME280;5892;43.412;24.612;2022-12-20T07:46:33;102228.28;;;-2.69;100.00
11672;BME280;5892;43.412;24.612;2022-12-20T07:49:02;102115.75;;;-3.24;100.00
11672;BME280;5892;43.412;24.612;2022-12-20T07:51:35;102203.91;;;-2.59;100.00
11672;BME280;5892;43.412;24.612;2022-12-20T07:54:07;102232.03;;;-2.55;100.00
11672;BME280;5892;43.412;24.612;2022-12-20T07:56:38;102183.38;;;-3.06;100.00
11672;BME280;5892;43.412;24.612;2022-12-20T07:59:07;102236.19;;;-2.75;100.00
11672;BME280;5892;43.412;24.612;2022-12-20T08:01:35;102199.91;;;-2.94;100.00
11672;BME280;5892;43.412;24.612;2022-12-20T08:04:07;102227.31;;;-2.76;100.00
11672;BME280;5892;43.412;24.612;2022-12-20T08:06:38;102226.78;;;-2.71;100.00
11672;BME280;5892;43.412;24.612;2022-12-20T08:09:06;102153.28;;;-3.24;100.00
11672;BME280;5892;43.412;24.612;2022-12-20T08:11:48;102208.97;;;-2.64;100.00
11672;BME280;5892;43.412;24.612;2022-12-20T08:14:19;102217.44;;;-2.30;100.00
11672;BME280;5892;43.412;24.612;2022-12-20T08:16:46;102216.16;;;-2.19;100.00
11672;BME280;5892;43.412;24.612;2022-12-20T08:19:15;102212.47;;;-2.18;100.00
11672;BME280;5892;43.412;24.612;2022-12-20T08:21:42;102178.34;;;-2.55;100.00
11672;BME280;5892;43.412;24.612;2022-12-20T08:24:09;102210.88;;;-2.04;100.00
11672;BME280;5892;43.412;24.612;2022-12-20T08:26:37;102152.19;;;-2.53;100.00
11672;BME280;5892;43.412;24.612;2022-12-20T08:29:04;102238.66;;;-1.97;100.00
11672;BME280;5892;43.412;24.612;2022-12-20T08:31:36;102174.47;;;-1.92;100.00
11672;BME280;5892;43.412;24.612;2022-12-20T08:34:04;102161.88;;;-1.77;100.00
11672;BME280;5892;43.412;24.612;2022-12-20T08:36:33;102182.06;;;-1.81;100.00
11672;BME280;5892;43.412;24.612;2022-12-20T08:39:01;102180.91;;;-1.79;100.00
11672;BME280;5892;43.412;24.612;2022-12-20T08:41:29;102196.09;;;-1.71;100.00
11672;BME280;5892;43.412;24.612;2022-12-20T08:43:57;102176.31;;;-1.93;100.00
11672;BME280;5892;43.412;24.612;2022-12-20T08:46:24;102203.88;;;-1.61;100.00
11672;BME280;5892;43.412;24.612;2022-12-20T08:48:51;102179.28;;;-1.88;100.00
11672;BME280;5892;43.412;24.612;2022-12-20T08:51:19;102193.66;;;-1.95;100.00
11672;BME280;5892;43.412;24.612;2022-12-20T08:53:48;102180.28;;;-2.03;100.00
11672;BME280;5892;43.412;24.612;2022-12-20T08:56:16;102191.53;;;-1.85;100.00
11672;BME280;5892;43.412;24.612;2022-12-20T08:58:43;102182.06;;;-1.81;100.00
11672;BME280;5892;43.412;24.612;2022-12-20T09:01:12;102192.50;;;-1.63;100.00
11672;BME280;5892;43.412;24.612;2022-12-20T09:03:40;102174.13;;;-1.45;100.00
11672;BME280;5892;43.412;24.612;2022-12-20T09:06:09;102176.91;;;-1.39;100.00
11672;BME280;5892;43.412;24.612;2022-12-20T09:08:38;102168.72;;;-1.31;100.00
11672;BME280;5892;43.412;24.612;2022-12-20T09:11:09;102103.22;;;-1.59;100.00
11672;BME280;5892;43.412;24.612;2022-12-20T09:13:36;102150.72;;;-1.30;100.00
11672;BME280;5892;43.412;24.612;2022-12-20T09:16:06;102151.84;;;-1.24;100.00
11672;BME280;5892;43.412;24.612;2022-12-20T09:18:33;102157.75;;;-1.14;100.00
11672;BME280;5892;43.412;24.612;2022-12-20T09:21:03;102142.41;;;-1.20;100.00
11672;BME280;5892;43.412;24.612;2022-12-20T09:23:32;102152.66;;;-1.09;100.00
11672;BME280;5892;43.412;24.612;2022-12-20T09:26:01;102149.59;;;-1.06;100.00
11672;BME280;5892;43.412;24.612;2022-12-20T09:28:30;102147.75;;;-1.06;100.00
11672;BME280;5892;43.412;24.612;2022-12-20T09:30:58;102141.88;;;-1.09;100.00
11672;BME280;5892;43.412;24.612;2022-12-20T09:33:26;102142.53;;;-1.07;100.00
11672;BME280;5892;43.412;24.612;2022-12-20T09:35:53;102125.97;;;-1.25;100.00
11672;BME280;5892;43.412;24.612;2022-12-20T09:38:20;102105.66;;;-1.28;100.00
11672;BME280;5892;43.412;24.612;2022-12-20T09:40:49;102124.59;;;-1.21;100.00
11672;BME280;5892;43.412;24.612;2022-12-20T09:43:18;102109.41;;;-1.08;100.00
11672;BME280;5892;43.412;24.612;2022-12-20T09:45:52;102089.97;;;-1.24;100.00
11672;BME280;5892;43.412;24.612;2022-12-20T09:48:22;102114.69;;;-1.00;100.00
11672;BME280;5892;43.412;24.612;2022-12-20T09:50:56;102099.94;;;-0.82;100.00
11672;BME280;5892;43.412;24.612;2022-12-20T09:53:36;102076.94;;;-1.06;100.00
11672;BME280;5892;43.412;24.612;2022-12-20T09:56:11;102057.44;;;-1.30;100.00
11672;BME280;5892;43.412;24.612;2022-12-20T09:58:58;102083.22;;;-0.99;100.00
11672;BME280;5892;43.412;24.612;2022-12-20T10:01:31;102072.78;;;-1.09;100.00
11672;BME280;5892;43.412;24.612;2022-12-20T10:04:02;102073.53;;;-0.94;100.00
11672;BME280;5892;43.412;24.612;2022-12-20T10:06:39;102062.09;;;-0.81;100.00
11672;BME280;5892;43.412;24.612;2022-12-20T10:09:12;102054.44;;;-0.77;100.00
11672;BME280;5892;43.412;24.612;2022-12-20T10:12:00;102057.47;;;-0.66;100.00
11672;BME280;5892;43.412;24.612;2022-12-20T10:14:54;102058.72;;;-0.62;100.00
11672;BME280;5892;43.412;24.612;2022-12-20T10:17:36;102044.72;;;-0.51;100.00
11672;BME280;5892;43.412;24.612;2022-12-20T10:20:21;102057.72;;;-0.61;100.00
11672;BME280;5892;43.412;24.612;2022-12-20T10:22:53;102033.31;;;-0.80;100.00
11672;BME280;5892;43.412;24.612;2022-12-20T10:25:28;101979.78;;;-1.18;100.00
11672;BME280;5892;43.412;24.612;2022-12-20T10:27:57;102019.41;;;-0.84;100.00
11672;BME280;5892;43.412;24.612;2022-12-20T10:30:28;102008.00;;;-0.86;100.00
11672;BME280;5892;43.412;24.612;2022-12-20T10:32:57;102022.28;;;-0.64;100.00
11672;BME280;5892;43.412;24.612;2022-12-20T10:35:27;102013.59;;;-0.60;100.00
11672;BME280;5892;43.412;24.612;2022-12-20T10:37:58;102013.00;;;-0.27;100.00
11672;BME280;5892;43.412;24.612;2022-12-20T10:40:27;101986.75;;;-0.47;100.00
11672;BME280;5892;43.412;24.612;2022-12-20T10:42:55;102013.59;;;-0.32;100.00
11672;BME280;5892;43.412;24.612;2022-12-20T10:45:32;102001.78;;;-0.31;100.00
11672;BME280;5892;43.412;24.612;2022-12-20T10:48:04;101996.38;;;-0.31;100.00
11672;BME280;5892;43.412;24.612;2022-12-20T10:50:32;101995.06;;;-0.42;100.00
11672;BME280;5892;43.412;24.612;2022-12-20T10:53:19;101960.19;;;-0.56;100.00
11672;BME280;5892;43.412;24.612;2022-12-20T10:55:46;101988.91;;;-0.35;100.00
11672;BME280;5892;43.412;24.612;2022-12-20T10:58:17;101973.63;;;-0.28;100.00
11672;BME280;5892;43.412;24.612;2022-12-20T11:00:48;101979.06;;;-0.15;100.00
11672;BME280;5892;43.412;24.612;2022-12-20T11:03:19;101970.19;;;-0.09;99.76
11672;BME280;5892;43.412;24.612;2022-12-20T11:05:55;101936.56;;;-0.26;99.36
11672;BME280;5892;43.412;24.612;2022-12-20T11:08:23;101970.97;;;-0.15;99.25
11672;BME280;5892;43.412;24.612;2022-12-20T11:11:12;101885.69;;;-0.77;99.64
11672;BME280;5892;43.412;24.612;2022-12-20T11:13:41;101852.94;;;-1.15;100.00
11672;BME280;5892;43.412;24.612;2022-12-20T11:16:22;101952.63;;;-0.74;100.00
11672;BME280;5892;43.412;24.612;2022-12-20T11:18:59;101953.53;;;-0.60;100.00
11672;BME280;5892;43.412;24.612;2022-12-20T11:21:34;101949.22;;;-0.55;100.00
11672;BME280;5892;43.412;24.612;2022-12-20T11:24:10;101951.28;;;-0.57;100.00
11672;BME280;5892;43.412;24.612;2022-12-20T11:26:49;101946.69;;;-0.28;100.00
11672;BME280;5892;43.412;24.612;2022-12-20T11:29:33;101940.75;;;-0.17;100.00
11672;BME280;5892;43.412;24.612;2022-12-20T11:32:10;101943.34;;;-0.30;100.00
11672;BME280;5892;43.412;24.612;2022-12-20T11:34:52;101929.72;;;-0.22;100.00
11672;BME280;5892;43.412;24.612;2022-12-20T11:37:25;101918.25;;;-0.37;100.00
11672;BME280;5892;43.412;24.612;2022-12-20T11:40:05;101923.28;;;-0.62;100.00
11672;BME280;5892;43.412;24.612;2022-12-20T11:42:49;101817.63;;;-1.61;100.00
11672;BME280;5892;43.412;24.612;2022-12-20T11:45:25;101943.81;;;-0.89;100.00
11672;BME280;5892;43.412;24.612;2022-12-20T11:48:19;101927.88;;;-1.12;100.00
11672;BME280;5892;43.412;24.612;2022-12-20T11:51:00;101917.47;;;-0.94;100.00
11672;BME280;5892;43.412;24.612;2022-12-20T11:53:34;101919.63;;;-0.82;100.00
11672;BME280;5892;43.412;24.612;2022-12-20T11:56:07;101912.84;;;-1.06;100.00
11672;BME280;5892;43.412;24.612;2022-12-20T11:58:47;101903.28;;;-1.37;100.00
11672;BME280;5892;43.412;24.612;2022-12-20T12:01:18;101909.53;;;-1.30;100.00
11672;BME280;5892;43.412;24.612;2022-12-20T12:03:55;101874.19;;;-1.26;100.00
11672;BME280;5892;43.412;24.612;2022-12-20T12:06:29;101892.25;;;-1.20;100.00
11672;BME280;5892;43.412;24.612;2022-12-20T12:09:07;101892.47;;;-1.15;100.00
11672;BME280;5892;43.412;24.612;2022-12-20T12:11:41;101880.94;;;-1.31;100.00
11672;BME280;5892;43.412;24.612;2022-12-20T12:14:19;101890.56;;;-1.21;100.00
11672;BME280;5892;43.412;24.612;2022-12-20T12:16:52;101876.91;;;-1.48;100.00
11672;BME280;5892;43.412;24.612;2022-12-20T12:19:25;101869.09;;;-1.64;100.00
11672;BME280;5892;43.412;24.612;2022-12-20T12:22:00;101855.38;;;-1.48;100.00
11672;BME280;5892;43.412;24.612;2022-12-20T12:24:33;101897.28;;;-1.11;100.00
11672;BME280;5892;43.412;24.612;2022-12-20T12:27:03;101873.69;;;-1.58;100.00
11672;BME280;5892;43.412;24.612;2022-12-20T12:29:33;101886.63;;;-1.47;100.00
11672;BME280;5892;43.412;24.612;2022-12-20T12:32:04;101878.72;;;-1.27;100.00
11672;BME280;5892;43.412;24.612;2022-12-20T12:34:49;101884.03;;;-1.34;100.00
11672;BME280;5892;43.412;24.612;2022-12-20T12:37:47;101885.47;;;-1.80;100.00
11672;BME280;5892;43.412;24.612;2022-12-20T12:43:45;101864.38;;;-1.34;100.00
11672;BME280;5892;43.412;24.612;2022-12-20T12:46:17;101883.38;;;-1.14;100.00
11672;BME280;5892;43.412;24.612;2022-12-20T12:48:51;101851.38;;;-1.31;100.00
11672;BME280;5892;43.412;24.612;2022-12-20T12:51:25;101851.78;;;-1.06;100.00
11672;BME280;5892;43.412;24.612;2022-12-20T12:54:04;101869.25;;;-0.89;100.00
11672;BME280;5892;43.412;24.612;2022-12-20T12:56:44;101878.66;;;-0.78;100.00
11672;BME280;5892;43.412;24.612;2022-12-20T12:59:26;101859.34;;;-0.88;100.00
11672;BME280;5892;43.412;24.612;2022-12-20T13:02:23;101874.09;;;-0.77;100.00
11672;BME280;5892;43.412;24.612;2022-12-20T13:04:54;101865.66;;;-0.68;100.00
11672;BME280;5892;43.412;24.612;2022-12-20T13:07:27;101862.97;;;-0.68;100.00